Terminal Aerodrome Forecast
Issued by NWS

Home | Current Version | Previous Version | Text Only | Print | Product List | Glossary Off
Versions: 1 2 3 4 5 6 7 8 9 10 11 12 13 14 15 16 17 18

000
FTUS43 KICT 182340
TAFRSL
TAF
KRSL 182340Z 1900/1924 14009KT P6SM VCTS SCT035CB BKN060
      TEMPO 1900/1904 6SM -SHRA BKN035
     FM190600 VRB06KT P6SM VCSH OVC080
     FM191200 33009KT P6SM VCSH SCT025 OVC060
     FM191800 33015G24KT 6SM -SHRA OVC040=

USA.gov is the U.S. government's official web portal to all federal, state and local government web resources and services.